Sanford, Florida
Current Conditions -  °F | °C
As of 2:53 AM on Friday 24 Oct 2014 (Local Time) from KSFB Reporting Station
Broken Clouds Broken Clouds  
Wind Chill: 18°   Ceiling: 4300
Heat Index: 18°   Visibility: 10mi
Dew Point: 13°   Wind: 9mph
Humidity: 70%   Direction: 360°N
Pressure: 29.98"   Gusts: NA
Location:  28.81°N, 81.27°W
Report Text: KSFB 240653Z AUTO 36008KT 10SM BKN043 18/13 A2998 RMK AO2 SLP151 T01830128 TSNO
Loading
Personal Weather Stations






























Interactive Weather Map
Tropical Storm Tracking
New forecast layout! Learn more

10-Day Weather Forecast

Advertisements
Track Severe Weather on mobile